createdAt,value
2022-09-05T00:00:59.216Z,14.4
2022-09-05T00:15:26.490Z,14.3
2022-09-05T00:31:57.837Z,14.3
2022-09-05T00:45:49.084Z,14.3
2022-09-05T01:00:22.487Z,14.4
2022-09-05T01:14:52.213Z,14.5
2022-09-05T01:29:20.389Z,14.6
2022-09-05T01:43:44.977Z,14.6
2022-09-05T01:58:12.999Z,14.6
2022-09-05T02:12:40.632Z,14.6
2022-09-05T02:28:06.358Z,14.7
2022-09-05T02:45:28.836Z,14.7
2022-09-05T02:59:37.121Z,14.5
2022-09-05T03:13:55.070Z,14.7
2022-09-05T03:28:26.946Z,14.9
2022-09-05T03:42:54.967Z,14.6
2022-09-05T03:57:43.561Z,14.8
2022-09-05T04:11:57.665Z,14.8
2022-09-05T04:26:25.566Z,14.8
2022-09-05T04:40:55.001Z,14.8
2022-09-05T04:55:23.301Z,14.8
2022-09-05T05:18:54.454Z,14.8
2022-09-05T05:32:47.029Z,14.7
2022-09-05T05:47:05.681Z,14.7
2022-09-05T06:01:39.363Z,14.8
2022-09-05T06:16:08.463Z,15.5
2022-09-05T06:30:39.019Z,15.4
2022-09-05T06:45:29.373Z,15.5
2022-09-05T06:59:45.359Z,15.8
2022-09-05T07:14:15.481Z,15.8
2022-09-05T07:28:51.842Z,15.7
2022-09-05T07:43:30.858Z,15.5
2022-09-05T07:58:10.562Z,15.6
2022-09-05T08:13:27.742Z,15.5
2022-09-05T08:27:44.261Z,14.8
2022-09-05T08:42:12.702Z,13.9
2022-09-05T08:56:29.132Z,13.3
2022-09-05T09:11:11.718Z,14.3
2022-09-05T09:25:34.715Z,12.9
2022-09-05T09:40:05.078Z,12.6
2022-09-05T09:54:26.740Z,12.2
2022-09-05T10:11:56.525Z,11.9
2022-09-05T10:25:47.196Z,12.5
2022-09-05T10:40:17.499Z,12.3
2022-09-05T10:54:45.432Z,11.7
2022-09-05T11:09:21.604Z,10.7
2022-09-05T11:23:57.849Z,10.4
2022-09-05T11:41:08.181Z,10.8
2022-09-05T11:55:21.946Z,10.6
2022-09-05T12:09:43.708Z,10.9
2022-09-05T12:28:02.309Z,10.6
2022-09-05T12:44:48.651Z,10.5
2022-09-05T13:03:30.445Z,10.5
2022-09-05T13:17:14.595Z,10.1
2022-09-05T13:38:50.081Z,10
2022-09-05T13:52:27.139Z,10
2022-09-05T14:07:46.573Z,9.4
2022-09-05T14:21:53.337Z,9.5
2022-09-05T14:38:16.653Z,9.6
2022-09-05T14:52:13.453Z,9.7
2022-09-05T15:06:41.485Z,9.8
2022-09-05T15:21:07.690Z,10
2022-09-05T15:35:35.748Z,9.7
2022-09-05T15:50:02.277Z,9.6
2022-09-05T16:12:18.670Z,9.7
2022-09-05T16:25:57.778Z,9.9
2022-09-05T16:40:25.256Z,10.1
2022-09-05T16:54:53.039Z,10
2022-09-05T17:09:20.142Z,11.1
2022-09-05T17:45:21.155Z,10.7
2022-09-05T17:59:45.239Z,10.7
2022-09-05T18:14:35.041Z,11.1
2022-09-05T18:28:50.453Z,11
2022-09-05T18:43:18.274Z,11.2
2022-09-05T18:57:47.545Z,11.3
2022-09-05T19:12:53.877Z,11.5
2022-09-05T19:37:39.886Z,11.5
2022-09-05T19:51:26.918Z,11
2022-09-05T20:05:46.755Z,11.3
2022-09-05T20:20:15.715Z,11.5
2022-09-05T20:43:38.001Z,11.3
2022-09-05T20:57:19.505Z,11.4
2022-09-05T21:11:42.146Z,11.5
2022-09-05T21:26:16.831Z,11.4
2022-09-05T21:40:39.121Z,11.4
2022-09-05T21:59:47.554Z,11.4
2022-09-05T22:13:28.553Z,11.3
2022-09-05T22:27:57.586Z,11.1
2022-09-05T22:42:26.433Z,10.9
2022-09-05T22:56:54.135Z,11.2
2022-09-05T23:11:23.696Z,11
2022-09-05T23:25:52.631Z,11
2022-09-05T23:40:19.485Z,11.2
2022-09-05T23:54:48.347Z,11.2
